Time;durP1;ratioP1;P1;durP2;ratioP2;P2;SDS_P1;SDS_P2;PMS_P1;PMS_P2;Temp;Humidity;BMP_temperature;BMP_pressure;BME280_temperature;BME280_humidity;BME280_pressure;Samples;Min_cycle;Max_cycle;Signal;HPM_P1;HPM_P2
2023/01/10 00:00:40;;;;;;;;;;;;;;;;;;5134858;27;19908;-67
2023/01/10 00:03:07;;;;;;;;;;;;;;;;;;5134919;27;20393;-67
2023/01/10 00:05:33;;;;;;;;;;;;;;;;;;5134539;27;19908;-67
2023/01/10 00:08:00;;;;;;;;;;;;;;;;;;5133442;27;19908;-67
2023/01/10 00:10:26;;;;;;;;;;;;;;;;;;5134696;27;20280;-67
2023/01/10 00:15:37;;;;;;;;;;;;;;;;;;5134852;28;19915;-66
2023/01/10 00:18:03;;;;;;;;;;;;;;;;;;5133139;28;19908;-68
2023/01/10 00:20:29;;;;;;;;;;;;;;;;;;5134916;28;19953;-68
2023/01/10 00:22:55;;;;;;;;;;;;;;;;;;5134917;28;20279;-68
2023/01/10 00:25:21;;;;;;;;;;;;;;;;;;5134361;28;20322;-68
2023/01/10 00:28:33;;;;;;;;;;;;;;;;;;5134637;28;19923;-68
2023/01/10 00:30:34;;;;;;;;;;;;;;;;;;5123511;28;20394;-67
2023/01/10 00:33:00;;;;;;;;;;;;;;;;;;5134302;27;19915;-68
2023/01/10 00:35:25;;;;;;;;;;;;;;;;;;5134655;28;20283;-67
2023/01/10 00:37:56;;;;;;;;;;;;;;;;;;5134700;28;20352;-67
2023/01/10 00:40:22;;;;;;;;;;;;;;;;;;5134243;27;19908;-66
2023/01/10 00:45:33;;;;;;;;;;;;;;;;;;5134690;28;19914;-67
2023/01/10 00:47:59;;;;;;;;;;;;;;;;;;5134171;28;19907;-67
2023/01/10 00:50:25;;;;;;;;;;;;;;;;;;5133254;28;19915;-66
2023/01/10 00:52:51;;;;;;;;;;;;;;;;;;5134535;28;20127;-66
2023/01/10 00:55:17;;;;;;;;;;;;;;;;;;5134147;28;19907;-66
2023/01/10 00:57:43;;;;;;;;;;;;;;;;;;5134532;28;19907;-67
2023/01/10 01:00:09;;;;;;;;;;;;;;;;;;5133980;28;19908;-66
2023/01/10 01:02:35;;;;;;;;;;;;;;;;;;5134453;28;19908;-66
2023/01/10 01:05:00;;;;;;;;;;;;;;;;;;5134551;28;19915;-66
2023/01/10 01:07:26;;;;;;;;;;;;;;;;;;5133938;28;20422;-66
2023/01/10 01:12:37;;;;;;;;;;;;;;;;;;5134160;28;19942;-66
2023/01/10 01:15:03;;;;;;;;;;;;;;;;;;5133907;28;19916;-68
2023/01/10 01:17:29;;;;;;;;;;;;;;;;;;5134282;28;19907;-66
2023/01/10 01:19:55;;;;;;;;;;;;;;;;;;5134218;27;19914;-67
2023/01/10 01:22:21;;;;;;;;;;;;;;;;;;5137337;27;19911;-66
2023/01/10 01:24:47;;;;;;;;;;;;;;;;;;5138020;27;20006;-67
2023/01/10 01:27:13;;;;;;;;;;;;;;;;;;5137914;27;19916;-67
2023/01/10 01:29:39;;;;;;;;;;;;;;;;;;5136105;27;19930;-67
2023/01/10 01:32:05;;;;;;;;;;;;;;;;;;5137868;27;19914;-67
2023/01/10 01:34:31;;;;;;;;;;;;;;;;;;5136372;27;19916;-67
2023/01/10 01:36:57;;;;;;;;;;;;;;;;;;5136036;27;20014;-66
2023/01/10 01:39:23;;;;;;;;;;;;;;;;;;5136368;27;19914;-67
2023/01/10 01:41:59;;;;;;;;;;;;;;;;;;5136350;27;19907;-67
2023/01/10 01:44:25;;;;;;;;;;;;;;;;;;5137236;27;19960;-67
2023/01/10 01:46:51;;;;;;;;;;;;;;;;;;5137546;27;19998;-67
2023/01/10 01:49:17;;;;;;;;;;;;;;;;;;5136221;27;19915;-67
2023/01/10 01:51:44;;;;;;;;;;;;;;;;;;5137001;27;20037;-67
2023/01/10 01:54:11;;;;;;;;;;;;;;;;;;5137299;27;19960;-66
2023/01/10 01:56:36;;;;;;;;;;;;;;;;;;5137195;27;19915;-68
2023/01/10 01:59:02;;;;;;;;;;;;;;;;;;5137275;27;19908;-68
2023/01/10 02:01:28;;;;;;;;;;;;;;;;;;5137259;27;19912;-67
2023/01/10 02:03:54;;;;;;;;;;;;;;;;;;5136768;27;19968;-67
2023/01/10 02:06:20;;;;;;;;;;;;;;;;;;5137159;27;19907;-67
2023/01/10 02:08:49;;;;;;;;;;;;;;;;;;5137066;27;20345;-67
2023/01/10 02:11:15;;;;;;;;;;;;;;;;;;5136613;27;19907;-67
2023/01/10 02:13:41;;;;;;;;;;;;;;;;;;5136808;27;19946;-67
2023/01/10 02:16:07;;;;;;;;;;;;;;;;;;5136964;27;19908;-66
2023/01/10 02:18:33;;;;;;;;;;;;;;;;;;5135215;27;19907;-66
2023/01/10 02:20:59;;;;;;;;;;;;;;;;;;5136831;27;19908;-66
2023/01/10 02:23:25;;;;;;;;;;;;;;;;;;5136993;27;19907;-67
2023/01/10 02:25:51;;;;;;;;;;;;;;;;;;5136409;27;20358;-67
2023/01/10 02:28:16;;;;;;;;;;;;;;;;;;5137347;27;20428;-67
2023/01/10 02:30:42;;;;;;;;;;;;;;;;;;5135394;27;20359;-67
2023/01/10 02:33:08;;;;;;;;;;;;;;;;;;5134842;27;20395;-67
2023/01/10 02:35:34;;;;;;;;;;;;;;;;;;5136637;27;20429;-68
2023/01/10 02:38:00;;;;;;;;;;;;;;;;;;5136474;27;19914;-66
2023/01/10 02:40:26;;;;;;;;;;;;;;;;;;5134722;27;19914;-66
2023/01/10 02:42:52;;;;;;;;;;;;;;;;;;5136422;27;19907;-67
2023/01/10 02:45:18;;;;;;;;;;;;;;;;;;5136390;27;19932;-67
2023/01/10 02:47:44;;;;;;;;;;;;;;;;;;5135946;27;20383;-66
2023/01/10 02:50:10;;;;;;;;;;;;;;;;;;5136497;27;20420;-66
2023/01/10 02:52:36;;;;;;;;;;;;;;;;;;5136252;27;20412;-66
2023/01/10 02:55:02;;;;;;;;;;;;;;;;;;5135666;27;20355;-66
2023/01/10 02:57:28;;;;;;;;;;;;;;;;;;5134891;27;19943;-67
2023/01/10 02:59:54;;;;;;;;;;;;;;;;;;5134424;27;19968;-67
2023/01/10 03:02:20;;;;;;;;;;;;;;;;;;5136198;27;19907;-67
2023/01/10 03:04:46;;;;;;;;;;;;;;;;;;5134812;27;20002;-67
2023/01/10 03:07:13;;;;;;;;;;;;;;;;;;5135624;27;20351;-67
2023/01/10 03:09:38;;;;;;;;;;;;;;;;;;5134595;27;19943;-67
2023/01/10 03:12:04;;;;;;;;;;;;;;;;;;5135992;27;19962;-67
2023/01/10 03:14:30;;;;;;;;;;;;;;;;;;5133927;27;19919;-67
2023/01/10 03:16:56;;;;;;;;;;;;;;;;;;5134471;27;19908;-67
2023/01/10 03:19:22;;;;;;;;;;;;;;;;;;5136043;27;20011;-66
2023/01/10 03:21:49;;;;;;;;;;;;;;;;;;5133968;27;19908;-66
2023/01/10 03:24:15;;;;;;;;;;;;;;;;;;5135844;27;19908;-67
2023/01/10 03:26:41;;;;;;;;;;;;;;;;;;5135639;27;19912;-66
2023/01/10 03:29:07;;;;;;;;;;;;;;;;;;5133826;27;20373;-66
2023/01/10 03:31:33;;;;;;;;;;;;;;;;;;5135494;27;20355;-66
2023/01/10 03:33:59;;;;;;;;;;;;;;;;;;5135387;27;20252;-66
2023/01/10 03:36:26;;;;;;;;;;;;;;;;;;5135218;27;20419;-66
2023/01/10 03:38:52;;;;;;;;;;;;;;;;;;5135442;27;19911;-67
2023/01/10 03:41:18;;;;;;;;;;;;;;;;;;5135380;27;20305;-67
2023/01/10 03:46:28;;;;;;;;;;;;;;;;;;5135368;27;19918;-66
2023/01/10 03:48:54;;;;;;;;;;;;;;;;;;5135233;27;19994;-66
2023/01/10 03:51:20;;;;;;;;;;;;;;;;;;5134834;27;19908;-67
2023/01/10 03:53:46;;;;;;;;;;;;;;;;;;5134011;27;20002;-66
2023/01/10 03:56:12;;;;;;;;;;;;;;;;;;5133405;27;20244;-67
2023/01/10 03:58:38;;;;;;;;;;;;;;;;;;5135118;27;19951;-67
2023/01/10 04:01:04;;;;;;;;;;;;;;;;;;5135034;27;19968;-67
2023/01/10 04:03:30;;;;;;;;;;;;;;;;;;5134672;27;19930;-67
2023/01/10 04:05:56;;;;;;;;;;;;;;;;;;5133722;27;19943;-66
2023/01/10 04:08:22;;;;;;;;;;;;;;;;;;5134926;27;19919;-67
2023/01/10 04:10:47;;;;;;;;;;;;;;;;;;5134721;27;19960;-66
2023/01/10 04:13:13;;;;;;;;;;;;;;;;;;5134604;27;19920;-67
2023/01/10 04:15:39;;;;;;;;;;;;;;;;;;5133595;27;19914;-66
2023/01/10 04:18:05;;;;;;;;;;;;;;;;;;5134611;28;19907;-67
2023/01/10 04:20:31;;;;;;;;;;;;;;;;;;5134810;28;19911;-66
2023/01/10 04:22:57;;;;;;;;;;;;;;;;;;5133565;28;19915;-66
2023/01/10 04:25:23;;;;;;;;;;;;;;;;;;5134561;28;19922;-66
2023/01/10 04:27:49;;;;;;;;;;;;;;;;;;5134724;28;19994;-66
2023/01/10 04:30:15;;;;;;;;;;;;;;;;;;5134828;28;19911;-67
2023/01/10 04:32:41;;;;;;;;;;;;;;;;;;5134311;28;19912;-66
2023/01/10 04:35:07;;;;;;;;;;;;;;;;;;5134880;28;19958;-69
2023/01/10 04:37:33;;;;;;;;;;;;;;;;;;5133436;28;19960;-67
2023/01/10 04:39:59;;;;;;;;;;;;;;;;;;5134294;28;19907;-66
2023/01/10 04:42:25;;;;;;;;;;;;;;;;;;5133349;28;20355;-66
2023/01/10 04:44:50;;;;;;;;;;;;;;;;;;5134580;28;19978;-66
2023/01/10 04:47:16;;;;;;;;;;;;;;;;;;5134171;28;19915;-66
2023/01/10 04:49:42;;;;;;;;;;;;;;;;;;5134551;28;19908;-66
2023/01/10 04:52:08;;;;;;;;;;;;;;;;;;5133255;28;19952;-67
2023/01/10 04:54:34;;;;;;;;;;;;;;;;;;5134055;27;19915;-66
2023/01/10 04:57:00;;;;;;;;;;;;;;;;;;5136312;27;19908;-67
2023/01/10 04:59:26;;;;;;;;;;;;;;;;;;5138072;27;19915;-67
2023/01/10 05:01:52;;;;;;;;;;;;;;;;;;5137140;27;19907;-66
2023/01/10 05:04:18;;;;;;;;;;;;;;;;;;5137136;27;19952;-66
2023/01/10 05:06:44;;;;;;;;;;;;;;;;;;5136707;27;20316;-68
2023/01/10 05:09:10;;;;;;;;;;;;;;;;;;5138346;27;20032;-67
2023/01/10 05:11:36;;;;;;;;;;;;;;;;;;5138276;27;19944;-67
2023/01/10 05:14:02;;;;;;;;;;;;;;;;;;5137610;27;19919;-67
2023/01/10 05:16:28;;;;;;;;;;;;;;;;;;5138250;27;19911;-67
2023/01/10 05:18:54;;;;;;;;;;;;;;;;;;5138194;27;20358;-67
2023/01/10 05:21:20;;;;;;;;;;;;;;;;;;5137833;27;19913;-68
2023/01/10 05:23:46;;;;;;;;;;;;;;;;;;5138032;27;20317;-68
2023/01/10 05:26:12;;;;;;;;;;;;;;;;;;5138011;27;19919;-67
2023/01/10 05:28:38;;;;;;;;;;;;;;;;;;5137516;27;19908;-67
2023/01/10 05:31:04;;;;;;;;;;;;;;;;;;5137871;27;19914;-67
2023/01/10 05:33:30;;;;;;;;;;;;;;;;;;5137874;27;19912;-67
2023/01/10 05:35:56;;;;;;;;;;;;;;;;;;5137472;27;19914;-67
2023/01/10 05:38:21;;;;;;;;;;;;;;;;;;5137780;27;19964;-66
2023/01/10 05:40:47;;;;;;;;;;;;;;;;;;5137696;27;20004;-67
2023/01/10 05:43:13;;;;;;;;;;;;;;;;;;5137263;27;19914;-66
2023/01/10 05:45:39;;;;;;;;;;;;;;;;;;5137679;27;20006;-66
2023/01/10 05:48:05;;;;;;;;;;;;;;;;;;5136285;27;20336;-67
2023/01/10 05:50:31;;;;;;;;;;;;;;;;;;5137173;27;19916;-66
2023/01/10 05:53:02;;;;;;;;;;;;;;;;;;5137368;27;19907;-66
2023/01/10 05:55:28;;;;;;;;;;;;;;;;;;5137784;27;19915;-67
2023/01/10 05:57:54;;;;;;;;;;;;;;;;;;5136969;27;20278;-67
2023/01/10 06:00:20;;;;;;;;;;;;;;;;;;5136045;27;19908;-67
2023/01/10 06:02:46;;;;;;;;;;;;;;;;;;5136868;27;19908;-67
2023/01/10 06:05:12;;;;;;;;;;;;;;;;;;5137259;27;19994;-67
2023/01/10 06:07:38;;;;;;;;;;;;;;;;;;5136908;27;20316;-68
2023/01/10 06:10:04;;;;;;;;;;;;;;;;;;5136774;27;19914;-67
2023/01/10 06:12:30;;;;;;;;;;;;;;;;;;5136896;27;20044;-66
2023/01/10 06:14:56;;;;;;;;;;;;;;;;;;5136995;27;19919;-68
2023/01/10 06:17:22;;;;;;;;;;;;;;;;;;5136610;27;19911;-67
2023/01/10 06:19:48;;;;;;;;;;;;;;;;;;5136958;27;19915;-67
2023/01/10 06:22:14;;;;;;;;;;;;;;;;;;5135608;27;19907;-67
2023/01/10 06:24:41;;;;;;;;;;;;;;;;;;5136473;27;20359;-67
2023/01/10 06:27:07;;;;;;;;;;;;;;;;;;5136823;27;19994;-67
2023/01/10 06:29:33;;;;;;;;;;;;;;;;;;5135490;27;20419;-67
2023/01/10 06:31:59;;;;;;;;;;;;;;;;;;5136318;27;19915;-67
2023/01/10 06:34:25;;;;;;;;;;;;;;;;;;5136595;27;19916;-66
2023/01/10 06:36:51;;;;;;;;;;;;;;;;;;5135311;27;19914;-66
2023/01/10 06:39:17;;;;;;;;;;;;;;;;;;5136349;27;19908;-66
2023/01/10 06:41:42;;;;;;;;;;;;;;;;;;5136752;27;19947;-66
2023/01/10 06:44:08;;;;;;;;;;;;;;;;;;5136479;27;19915;-67
2023/01/10 06:46:34;;;;;;;;;;;;;;;;;;5136057;27;19994;-67
2023/01/10 06:49:00;;;;;;;;;;;;;;;;;;5136387;27;19908;-67
2023/01/10 06:51:26;;;;;;;;;;;;;;;;;;5136270;27;19914;-66
2023/01/10 06:53:52;;;;;;;;;;;;;;;;;;5135888;27;19919;-66
2023/01/10 06:56:18;;;;;;;;;;;;;;;;;;5135014;27;19948;-66
2023/01/10 06:58:44;;;;;;;;;;;;;;;;;;5136218;27;19908;-68
2023/01/10 07:01:10;;;;;;;;;;;;;;;;;;5135754;27;19952;-66
2023/01/10 07:03:36;;;;;;;;;;;;;;;;;;5134788;27;19911;-66
2023/01/10 07:06:02;;;;;;;;;;;;;;;;;;5134267;27;19914;-67
2023/01/10 07:08:28;;;;;;;;;;;;;;;;;;5134805;27;19911;-67
2023/01/10 07:10:54;;;;;;;;;;;;;;;;;;5134675;27;20351;-67
2023/01/10 07:13:20;;;;;;;;;;;;;;;;;;5135410;27;20329;-68
2023/01/10 07:15:46;;;;;;;;;;;;;;;;;;5135867;27;19914;-67
2023/01/10 07:18:12;;;;;;;;;;;;;;;;;;5135135;27;19918;-67
2023/01/10 07:20:38;;;;;;;;;;;;;;;;;;5135481;27;19952;-67
2023/01/10 07:23:03;;;;;;;;;;;;;;;;;;5135762;27;19915;-67
2023/01/10 07:25:29;;;;;;;;;;;;;;;;;;5135667;27;19941;-67
2023/01/10 07:27:56;;;;;;;;;;;;;;;;;;5135087;27;19908;-67
2023/01/10 07:30:22;;;;;;;;;;;;;;;;;;5134330;27;20258;-66
2023/01/10 07:32:48;;;;;;;;;;;;;;;;;;5134220;27;19990;-67
2023/01/10 07:35:13;;;;;;;;;;;;;;;;;;5135293;27;20399;-66
2023/01/10 07:37:40;;;;;;;;;;;;;;;;;;5135463;27;20287;-68
2023/01/10 07:40:06;;;;;;;;;;;;;;;;;;5134082;27;19931;-67
2023/01/10 07:42:32;;;;;;;;;;;;;;;;;;5133621;27;19995;-66
2023/01/10 07:44:57;;;;;;;;;;;;;;;;;;5135495;27;19908;-67
2023/01/10 07:47:23;;;;;;;;;;;;;;;;;;5134063;27;19907;-67
2023/01/10 07:49:49;;;;;;;;;;;;;;;;;;5134922;27;19908;-66
2023/01/10 07:52:15;;;;;;;;;;;;;;;;;;5135209;27;19968;-67
2023/01/10 07:54:41;;;;;;;;;;;;;;;;;;5135092;27;19919;-66
2023/01/10 07:57:07;;;;;;;;;;;;;;;;;;5133443;27;19939;-68
2023/01/10 07:59:33;;;;;;;;;;;;;;;;;;5133800;27;19933;-66
2023/01/10 08:01:59;;;;;;;;;;;;;;;;;;5135359;27;19907;-67
2023/01/10 08:04:25;;;;;;;;;;;;;;;;;;5134625;27;19958;-66
2023/01/10 08:06:51;;;;;;;;;;;;;;;;;;5135191;27;20339;-67
2023/01/10 08:09:17;;;;;;;;;;;;;;;;;;5133365;27;19954;-66
2023/01/10 08:11:43;;;;;;;;;;;;;;;;;;5135379;27;19907;-67
2023/01/10 08:14:09;;;;;;;;;;;;;;;;;;5134768;27;19927;-67
2023/01/10 08:16:35;;;;;;;;;;;;;;;;;;5134571;27;19998;-67
2023/01/10 08:19:01;;;;;;;;;;;;;;;;;;5135147;28;19912;-67
2023/01/10 08:21:27;;;;;;;;;;;;;;;;;;5134836;28;20264;-67
2023/01/10 08:23:53;;;;;;;;;;;;;;;;;;5134399;28;19976;-67
2023/01/10 08:26:19;;;;;;;;;;;;;;;;;;5134812;28;20317;-67
2023/01/10 08:28:45;;;;;;;;;;;;;;;;;;5134870;28;19930;-67
2023/01/10 08:31:11;;;;;;;;;;;;;;;;;;5138038;27;19907;-67
2023/01/10 08:33:37;;;;;;;;;;;;;;;;;;5139060;27;20010;-67
2023/01/10 08:36:03;;;;;;;;;;;;;;;;;;5138980;27;19930;-66
2023/01/10 08:38:29;;;;;;;;;;;;;;;;;;5138568;27;19908;-66
2023/01/10 08:40:55;;;;;;;;;;;;;;;;;;5137582;27;19915;-67
2023/01/10 08:43:20;;;;;;;;;;;;;;;;;;5138947;27;20263;-67
2023/01/10 08:45:46;;;;;;;;;;;;;;;;;;5137214;27;20377;-67
2023/01/10 08:48:13;;;;;;;;;;;;;;;;;;5138796;27;20275;-67
2023/01/10 08:50:39;;;;;;;;;;;;;;;;;;5138732;27;20263;-67
2023/01/10 08:53:06;;;;;;;;;;;;;;;;;;5138358;27;19908;-67
2023/01/10 08:55:34;;;;;;;;;;;;;;;;;;5138686;27;19915;-67
2023/01/10 08:58:00;;;;;;;;;;;;;;;;;;5137434;27;20359;-67
2023/01/10 09:00:26;;;;;;;;;;;;;;;;;;5138164;27;19934;-67
2023/01/10 09:02:52;;;;;;;;;;;;;;;;;;5138412;27;20000;-67
2023/01/10 09:05:18;;;;;;;;;;;;;;;;;;5137163;27;19911;-67
2023/01/10 09:07:45;;;;;;;;;;;;;;;;;;5137978;27;19914;-67
2023/01/10 09:10:11;;;;;;;;;;;;;;;;;;5138564;27;19951;-67
2023/01/10 09:12:55;;;;;;;;;;;;;;;;;;5136347;27;19977;-67
2023/01/10 09:15:21;;;;;;;;;;;;;;;;;;5136990;27;20307;-67
2023/01/10 09:17:48;;;;;;;;;;;;;;;;;;5138806;27;19915;-67
2023/01/10 09:20:14;;;;;;;;;;;;;;;;;;5137804;27;19916;-67
2023/01/10 09:22:40;;;;;;;;;;;;;;;;;;5138101;27;19907;-67
2023/01/10 09:25:06;;;;;;;;;;;;;;;;;;5138045;27;19994;-66
2023/01/10 09:27:32;;;;;;;;;;;;;;;;;;5136256;27;19953;-66
2023/01/10 09:29:58;;;;;;;;;;;;;;;;;;5136704;27;19911;-67
2023/01/10 09:32:24;;;;;;;;;;;;;;;;;;5137886;27;20006;-67
2023/01/10 09:34:50;;;;;;;;;;;;;;;;;;5137384;27;19923;-66
2023/01/10 09:37:16;;;;;;;;;;;;;;;;;;5137728;27;19907;-67
2023/01/10 09:39:42;;;;;;;;;;;;;;;;;;5137821;27;19947;-67
2023/01/10 09:42:08;;;;;;;;;;;;;;;;;;5136503;27;19988;-66
2023/01/10 09:44:34;;;;;;;;;;;;;;;;;;5137642;27;19907;-68
2023/01/10 09:47:00;;;;;;;;;;;;;;;;;;5137602;27;19952;-67
2023/01/10 09:49:26;;;;;;;;;;;;;;;;;;5137130;27;19912;-68
2023/01/10 09:51:52;;;;;;;;;;;;;;;;;;5137521;27;19912;-65
2023/01/10 09:54:18;;;;;;;;;;;;;;;;;;5137660;27;20003;-68
2023/01/10 09:56:44;;;;;;;;;;;;;;;;;;5137063;27;19908;-67
2023/01/10 09:59:09;;;;;;;;;;;;;;;;;;5136082;27;19919;-67
2023/01/10 10:01:35;;;;;;;;;;;;;;;;;;5137230;27;19943;-67
2023/01/10 10:04:01;;;;;;;;;;;;;;;;;;5136822;27;19937;-66
2023/01/10 10:06:27;;;;;;;;;;;;;;;;;;5137429;27;19940;-66
2023/01/10 10:08:53;;;;;;;;;;;;;;;;;;5136902;27;19912;-67
2023/01/10 10:11:19;;;;;;;;;;;;;;;;;;5137692;27;19915;-67
2023/01/10 10:13:46;;;;;;;;;;;;;;;;;;5135442;27;20010;-67
2023/01/10 10:16:12;;;;;;;;;;;;;;;;;;5135498;27;19912;-67
2023/01/10 10:18:38;;;;;;;;;;;;;;;;;;5136976;27;20382;-67
2023/01/10 10:21:06;;;;;;;;;;;;;;;;;;5137032;27;19912;-66
2023/01/10 10:23:32;;;;;;;;;;;;;;;;;;5136586;27;19918;-67
2023/01/10 10:25:58;;;;;;;;;;;;;;;;;;5136975;27;19911;-67
2023/01/10 10:28:30;;;;;;;;;;;;;;;;;;5136782;27;19912;-67
2023/01/10 10:30:56;;;;;;;;;;;;;;;;;;5136386;27;19922;-67
2023/01/10 10:33:22;;;;;;;;;;;;;;;;;;5136600;27;19915;-66
2023/01/10 10:35:48;;;;;;;;;;;;;;;;;;5136624;27;19945;-67
2023/01/10 10:38:14;;;;;;;;;;;;;;;;;;5134977;27;19960;-68
2023/01/10 10:40:40;;;;;;;;;;;;;;;;;;5135399;27;19908;-67
2023/01/10 10:43:06;;;;;;;;;;;;;;;;;;5136532;27;19950;-67
2023/01/10 10:45:32;;;;;;;;;;;;;;;;;;5136173;27;19943;-67
2023/01/10 10:47:59;;;;;;;;;;;;;;;;;;5136476;27;19908;-67
2023/01/10 10:50:25;;;;;;;;;;;;;;;;;;5136396;27;19994;-66
2023/01/10 10:52:51;;;;;;;;;;;;;;;;;;5135106;27;20347;-67
2023/01/10 10:55:17;;;;;;;;;;;;;;;;;;5135904;27;19916;-69
2023/01/10 10:57:43;;;;;;;;;;;;;;;;;;5136263;27;19953;-67
2023/01/10 11:00:09;;;;;;;;;;;;;;;;;;5134465;27;19947;-68
2023/01/10 11:02:35;;;;;;;;;;;;;;;;;;5136135;27;19965;-67
2023/01/10 11:05:01;;;;;;;;;;;;;;;;;;5135606;27;19908;-67
2023/01/10 11:07:27;;;;;;;;;;;;;;;;;;5135957;27;19946;-68
2023/01/10 11:12:57;;;;;;;;;;;;;;;;;;5071979;28;20432;-68
2023/01/10 11:15:23;;;;;;;;;;;;;;;;;;5072699;28;20038;-67
2023/01/10 11:17:49;;;;;;;;;;;;;;;;;;5101957;27;19908;-67
2023/01/10 11:20:15;;;;;;;;;;;;;;;;;;5135356;27;19929;-67
2023/01/10 11:22:41;;;;;;;;;;;;;;;;;;5135775;27;19965;-69
2023/01/10 11:25:07;;;;;;;;;;;;;;;;;;5135778;27;19946;-67
2023/01/10 11:27:33;;;;;;;;;;;;;;;;;;5135217;27;19915;-67
2023/01/10 11:29:59;;;;;;;;;;;;;;;;;;5117281;27;20432;-68
2023/01/10 11:32:26;;;;;;;;;;;;;;;;;;5135564;27;19914;-68
2023/01/10 11:34:57;;;;;;;;;;;;;;;;;;5134999;27;19919;-68
2023/01/10 11:37:27;;;;;;;;;;;;;;;;;;5135661;27;19947;-67
2023/01/10 11:39:53;;;;;;;;;;;;;;;;;;5135562;27;19930;-68
2023/01/10 11:42:19;;;;;;;;;;;;;;;;;;5116619;27;20359;-67
2023/01/10 11:44:45;;;;;;;;;;;;;;;;;;5135444;27;20359;-67
2023/01/10 11:47:13;;;;;;;;;;;;;;;;;;5135221;27;20443;-67
2023/01/10 11:49:39;;;;;;;;;;;;;;;;;;5135304;27;20260;-67
2023/01/10 11:52:05;;;;;;;;;;;;;;;;;;5116908;27;19937;-68
2023/01/10 11:54:31;;;;;;;;;;;;;;;;;;5134776;27;20371;-68
2023/01/10 11:59:45;;;;;;;;;;;;;;;;;;5112525;27;19923;-67
2023/01/10 12:05:27;;;;;;;;;;;;;;;;;;5153082;27;19915;-68
2023/01/10 12:08:57;;;;;;;;;;;;;;;;;;5111963;27;20273;-66
2023/01/10 12:12:37;;;;;;;;;;;;;;;;;;5112198;27;19916;-67
2023/01/10 12:15:03;;;;;;;;;;;;;;;;;;5111809;28;19965;-66
2023/01/10 12:17:29;;;;;;;;;;;;;;;;;;5111232;28;19908;-68
2023/01/10 12:19:57;;;;;;;;;;;;;;;;;;5110447;28;19916;-67
2023/01/10 12:23:20;;;;;;;;;;;;;;;;;;5111388;27;19916;-67
2023/01/10 12:25:46;;;;;;;;;;;;;;;;;;5111734;28;20010;-67
2023/01/10 12:32:17;;;;;;;;;;;;;;;;;;5111848;27;19912;-68
2023/01/10 12:34:43;;;;;;;;;;;;;;;;;;5111719;28;19912;-68
2023/01/10 12:37:09;;;;;;;;;;;;;;;;;;5111511;28;19908;-67
2023/01/10 12:40:58;;;;;;;;;;;;;;;;;;5051506;28;19924;-68
2023/01/10 12:46:09;;;;;;;;;;;;;;;;;;5051243;28;19955;-67
2023/01/10 12:48:35;;;;;;;;;;;;;;;;;;5049874;28;19909;-68
2023/01/10 12:51:01;;;;;;;;;;;;;;;;;;5050677;28;19909;-66
2023/01/10 12:57:18;;;;;;;;;;;;;;;;;;5112703;27;19916;-67
2023/01/10 13:06:15;;;;;;;;;;;;;;;;;;5111774;27;19922;-67
2023/01/10 13:08:42;;;;;;;;;;;;;;;;;;5110556;28;19954;-70
2023/01/10 13:11:08;;;;;;;;;;;;;;;;;;5111875;28;19961;-69
2023/01/10 13:15:12;;;;;;;;;;;;;;;;;;5111990;27;19922;-69
2023/01/10 13:17:38;;;;;;;;;;;;;;;;;;5110517;28;20439;-71
2023/01/10 13:24:12;;;;;;;;;;;;;;;;;;5071849;28;19919;-68
2023/01/10 13:27:21;;;;;;;;;;;;;;;;;;5096754;27;2182557;-68
2023/01/10 13:32:06;;;;;;;;;;;;;;;;;;5111929;27;19916;-68
2023/01/10 13:34:32;;;;;;;;;;;;;;;;;;5111413;28;20435;-67
2023/01/10 13:38:25;;;;;;;;;;;;;;;;;;5111933;27;19913;-67
2023/01/10 13:40:51;;;;;;;;;;;;;;;;;;5111418;28;19994;-67
2023/01/10 13:45:54;;;;;;;;;;;;;;;;;;5112104;27;19923;-68
2023/01/10 13:48:20;;;;;;;;;;;;;;;;;;5111404;28;19912;-68
2023/01/10 13:50:45;;;;;;;;;;;;;;;;;;5111659;28;19908;-67
2023/01/10 13:53:13;;;;;;;;;;;;;;;;;;5111811;28;20359;-68
2023/01/10 13:55:41;;;;;;;;;;;;;;;;;;5109933;28;19908;-68
2023/01/10 13:58:07;;;;;;;;;;;;;;;;;;5111634;28;19995;-67
2023/01/10 14:03:17;;;;;;;;;;;;;;;;;;5111505;28;19915;-67
2023/01/10 14:05:43;;;;;;;;;;;;;;;;;;5110070;28;20304;-67
2023/01/10 14:08:09;;;;;;;;;;;;;;;;;;5109726;28;20037;-67
2023/01/10 14:10:35;;;;;;;;;;;;;;;;;;5111361;28;19908;-67
2023/01/10 14:13:08;;;;;;;;;;;;;;;;;;5111257;28;19908;-67
2023/01/10 14:15:33;;;;;;;;;;;;;;;;;;5110953;28;19995;-67
2023/01/10 14:17:59;;;;;;;;;;;;;;;;;;5111247;28;20004;-67
2023/01/10 14:20:25;;;;;;;;;;;;;;;;;;5111146;28;19908;-68
2023/01/10 14:22:51;;;;;;;;;;;;;;;;;;5110894;28;19914;-66
2023/01/10 14:25:17;;;;;;;;;;;;;;;;;;5111168;28;19959;-68
2023/01/10 14:27:43;;;;;;;;;;;;;;;;;;5109759;28;19912;-67
2023/01/10 14:30:09;;;;;;;;;;;;;;;;;;5109376;28;19908;-67
2023/01/10 14:32:37;;;;;;;;;;;;;;;;;;5109559;28;19915;-67
2023/01/10 14:35:03;;;;;;;;;;;;;;;;;;5110945;28;19970;-67
2023/01/10 14:37:30;;;;;;;;;;;;;;;;;;5110797;28;19908;-68
2023/01/10 14:39:56;;;;;;;;;;;;;;;;;;5109534;28;20344;-67
2023/01/10 14:42:22;;;;;;;;;;;;;;;;;;5109426;28;19936;-68
2023/01/10 14:44:48;;;;;;;;;;;;;;;;;;5110059;28;19926;-68
2023/01/10 14:47:14;;;;;;;;;;;;;;;;;;5110661;28;19908;-67
2023/01/10 14:49:40;;;;;;;;;;;;;;;;;;5110650;28;20303;-68
2023/01/10 14:52:06;;;;;;;;;;;;;;;;;;5110455;28;20300;-67
2023/01/10 14:54:32;;;;;;;;;;;;;;;;;;5110603;28;20253;-68
2023/01/10 14:56:58;;;;;;;;;;;;;;;;;;5098289;28;20382;-68
2023/01/10 14:59:24;;;;;;;;;;;;;;;;;;5095160;28;20302;-67
2023/01/10 15:01:50;;;;;;;;;;;;;;;;;;5095552;28;19991;-67
2023/01/10 15:04:16;;;;;;;;;;;;;;;;;;5096262;28;19999;-67
2023/01/10 15:06:42;;;;;;;;;;;;;;;;;;5096779;28;19915;-67
2023/01/10 15:09:08;;;;;;;;;;;;;;;;;;5096557;28;19908;-68
2023/01/10 15:11:34;;;;;;;;;;;;;;;;;;5096329;28;20368;-67
2023/01/10 15:14:02;;;;;;;;;;;;;;;;;;5095267;28;20329;-67
2023/01/10 15:16:28;;;;;;;;;;;;;;;;;;5096565;28;19908;-67
2023/01/10 15:18:55;;;;;;;;;;;;;;;;;;5094764;28;19915;-66
2023/01/10 15:21:23;;;;;;;;;;;;;;;;;;5096716;28;19915;-68
2023/01/10 15:23:49;;;;;;;;;;;;;;;;;;5096199;28;19912;-68
2023/01/10 15:26:15;;;;;;;;;;;;;;;;;;5095904;28;19912;-67
2023/01/10 15:28:41;;;;;;;;;;;;;;;;;;5096493;28;19953;-68
2023/01/10 15:31:07;;;;;;;;;;;;;;;;;;5094875;28;19909;-67
2023/01/10 15:33:33;;;;;;;;;;;;;;;;;;5094574;28;19912;-68
2023/01/10 15:35:59;;;;;;;;;;;;;;;;;;5096211;28;19947;-66
2023/01/10 15:38:29;;;;;;;;;;;;;;;;;;5094849;28;20401;-66
2023/01/10 15:40:56;;;;;;;;;;;;;;;;;;5094303;28;19912;-66
2023/01/10 15:43:22;;;;;;;;;;;;;;;;;;5095926;28;19908;-68
2023/01/10 15:45:48;;;;;;;;;;;;;;;;;;5095762;28;19965;-68
2023/01/10 15:48:14;;;;;;;;;;;;;;;;;;5095529;28;19928;-68
2023/01/10 15:50:40;;;;;;;;;;;;;;;;;;5095910;28;19916;-66
2023/01/10 15:53:06;;;;;;;;;;;;;;;;;;5094466;28;19908;-66
2023/01/10 15:55:32;;;;;;;;;;;;;;;;;;5095366;28;19912;-68
2023/01/10 15:58:00;;;;;;;;;;;;;;;;;;5095689;28;19943;-67
2023/01/10 16:00:26;;;;;;;;;;;;;;;;;;5095579;28;20419;-68
2023/01/10 16:02:52;;;;;;;;;;;;;;;;;;5095582;28;19956;-66
2023/01/10 16:05:20;;;;;;;;;;;;;;;;;;5095502;28;20018;-68
2023/01/10 16:07:46;;;;;;;;;;;;;;;;;;5092921;28;19947;-67
2023/01/10 16:10:11;;;;;;;;;;;;;;;;;;5095492;28;19909;-66
2023/01/10 16:15:22;;;;;;;;;;;;;;;;;;5095259;28;20283;-67
2023/01/10 16:17:48;;;;;;;;;;;;;;;;;;5095382;28;19909;-67
2023/01/10 16:20:14;;;;;;;;;;;;;;;;;;5095475;28;19969;-67
2023/01/10 16:22:40;;;;;;;;;;;;;;;;;;5093626;28;20394;-67
2023/01/10 16:25:06;;;;;;;;;;;;;;;;;;5093928;28;19939;-67
2023/01/10 16:27:32;;;;;;;;;;;;;;;;;;5093873;28;19936;-67
2023/01/10 16:29:58;;;;;;;;;;;;;;;;;;5094760;28;20325;-68
2023/01/10 16:32:24;;;;;;;;;;;;;;;;;;5095182;28;19915;-67
2023/01/10 16:34:50;;;;;;;;;;;;;;;;;;5095055;28;19911;-67
2023/01/10 16:37:16;;;;;;;;;;;;;;;;;;5094529;28;19950;-67
2023/01/10 16:39:42;;;;;;;;;;;;;;;;;;5094985;28;19915;-68
2023/01/10 16:44:53;;;;;;;;;;;;;;;;;;5094223;28;19926;-67
2023/01/10 16:47:19;;;;;;;;;;;;;;;;;;5094830;28;20314;-68
2023/01/10 16:49:45;;;;;;;;;;;;;;;;;;5093049;28;19908;-68
2023/01/10 16:52:11;;;;;;;;;;;;;;;;;;5094770;28;19908;-68
2023/01/10 16:54:37;;;;;;;;;;;;;;;;;;5094936;28;19908;-68
2023/01/10 16:57:03;;;;;;;;;;;;;;;;;;5094205;28;20056;-68
2023/01/10 16:59:29;;;;;;;;;;;;;;;;;;5093587;28;19999;-68
2023/01/10 17:01:55;;;;;;;;;;;;;;;;;;5094724;28;19912;-67
2023/01/10 17:04:21;;;;;;;;;;;;;;;;;;5094155;28;19923;-66
2023/01/10 17:06:47;;;;;;;;;;;;;;;;;;5094716;28;20002;-67
2023/01/10 17:09:13;;;;;;;;;;;;;;;;;;5094422;28;19912;-67
2023/01/10 17:11:39;;;;;;;;;;;;;;;;;;5094023;28;19908;-67
2023/01/10 17:14:05;;;;;;;;;;;;;;;;;;5093032;28;19974;-67
2023/01/10 17:16:31;;;;;;;;;;;;;;;;;;5093043;28;19915;-67
2023/01/10 17:18:57;;;;;;;;;;;;;;;;;;5093805;28;19908;-67
2023/01/10 17:21:23;;;;;;;;;;;;;;;;;;5094266;28;19908;-67
2023/01/10 17:23:49;;;;;;;;;;;;;;;;;;5094192;28;19958;-66
2023/01/10 17:26:15;;;;;;;;;;;;;;;;;;5092603;28;20018;-66
2023/01/10 17:28:43;;;;;;;;;;;;;;;;;;5094131;28;19978;-67
2023/01/10 17:31:09;;;;;;;;;;;;;;;;;;5094077;28;20353;-67
2023/01/10 17:33:35;;;;;;;;;;;;;;;;;;5093653;28;19952;-68
2023/01/10 17:36:01;;;;;;;;;;;;;;;;;;5094046;28;20280;-69
2023/01/10 17:38:26;;;;;;;;;;;;;;;;;;5094026;28;19912;-68
2023/01/10 17:40:52;;;;;;;;;;;;;;;;;;5093586;28;19908;-68